Holly Hill, Florida
Current Conditions -  °F | °C
As of 9:53 PM on Friday 28 Nov 2014 (Local Time) from KDAB Reporting Station
Clear Clear  
Wind Chill:   Ceiling: Unl
Heat Index:   Visibility: 10mi
Dew Point:   Wind: 9mph
Humidity: 80%   Direction: 310°NW
Pressure: 30.3"   Gusts: NA
Location:  29.25°N, 81.04°W
Report Text: KDAB 290253Z 31008KT 10SM CLR 08/05 A3030 RMK AO2 SLP261 T00830050 50005
Loading
Personal Weather Stations






























Interactive Weather Map New forecast layout! Learn more

10-Day Weather Forecast

Advertisements
Track Severe Weather on mobile